If you wish to contribute or participate in the discussions about articles you are invited to join SKYbrary as a registered user

 Actions

Kahului Airport

From SKYbrary Wiki

PHOG
Airport
ICAO: PHOG – IATA: OGG
Summary
Name Kahului Airport
Region North America
Territory Hawaii US.gif
Location Kahului, Hawaii
Serving Kahului
Elevation 16.459 m
54 ft
54 ft16.459 m
Coordinates 20° 53' 47.02" N, 156° 26' 2.75" W
Runways
Designator Length Width Surface ROPS
2/20 2132 m6,994.751 ft
46 m150.919 ft
ASP yes/yes
5/23 1521 m4,990.157 ft
46 m150.919 ft
ASP yes/yes


METAR
Observation PHOG 150354Z 05017G25KT 10SM CLR 27/21 A2994 RMK AO2 PK WND 06030/0302 SLP143 T02720211
Station Kahului, Kahului Airport
Date/Time 15 October 2019 03:54:00
Wind direction 50°
Wind speed 17 kts
Lowest cloud amount n/a
Temperature 27.2°C
Dew point 21.1°C
Humidity 69%
QNH hPa
Weather condition n/a

BS
Tag(s) Bird Strike

Kahului Airport

ICAO: PHOG IATA: OGG

Description

Kahului Airport is a regional airport in the state of Hawaii, located east of the Kahului CDP in Maui County on the island of Maui near Haleakala.

Climatology

Tropical Savanna climate (Köppen climate classification As) - monthly mean temperature above 18°C64.4 °F
291.15 K
524.07 °R
in every month of the year and a pronounced dry season.

Maps

Terrain

Loading map...

Airport Layout

Loading map...


Accidents & Serious Incidents at or in vicinity of PHOG

None on SKYbrary